sensor_id;sensor_type;location;lat;lon;timestamp;pressure;altitude;pressure_sealevel;temperature;humidity
65872;BME280;52653;50.080;21.992;2023-03-26T00:00:20;98064.14;;;7.55;81.72
65872;BME280;52653;50.080;21.992;2023-03-26T00:03:15;98075.19;;;7.51;81.71
65872;BME280;52653;50.080;21.992;2023-03-26T00:06:04;98075.95;;;7.46;81.53
65872;BME280;52653;50.080;21.992;2023-03-26T00:08:43;98071.60;;;7.45;81.61
65872;BME280;52653;50.080;21.992;2023-03-26T00:11:28;98073.46;;;7.49;81.76
65872;BME280;52653;50.080;21.992;2023-03-26T00:14:04;98068.52;;;7.55;81.92
65872;BME280;52653;50.080;21.992;2023-03-26T00:16:40;98067.54;;;7.61;82.12
65872;BME280;52653;50.080;21.992;2023-03-26T00:19:24;98073.88;;;7.69;82.10
65872;BME280;52653;50.080;21.992;2023-03-26T00:21:58;98071.69;;;7.77;81.95
65872;BME280;52653;50.080;21.992;2023-03-26T00:24:33;98075.40;;;7.84;81.94
65872;BME280;52653;50.080;21.992;2023-03-26T00:27:09;98078.98;;;7.90;81.47
65872;BME280;52653;50.080;21.992;2023-03-26T00:29:42;98083.41;;;7.96;81.17
65872;BME280;52653;50.080;21.992;2023-03-26T00:32:18;98085.10;;;8.01;80.65
65872;BME280;52653;50.080;21.992;2023-03-26T00:34:51;98091.67;;;8.05;79.24
65872;BME280;52653;50.080;21.992;2023-03-26T00:37:27;98091.98;;;8.08;78.87
65872;BME280;52653;50.080;21.992;2023-03-26T00:40:00;98088.97;;;8.09;78.50
65872;BME280;52653;50.080;21.992;2023-03-26T00:42:37;98088.77;;;8.11;77.81
65872;BME280;52653;50.080;21.992;2023-03-26T00:45:13;98086.83;;;8.14;78.17
65872;BME280;52653;50.080;21.992;2023-03-26T00:47:49;98084.52;;;8.16;77.94
65872;BME280;52653;50.080;21.992;2023-03-26T00:50:22;98095.65;;;8.18;78.05
65872;BME280;52653;50.080;21.992;2023-03-26T00:53:05;98098.98;;;8.18;78.75
65872;BME280;52653;50.080;21.992;2023-03-26T00:55:39;98098.00;;;8.13;79.68
65872;BME280;52653;50.080;21.992;2023-03-26T00:58:15;98098.48;;;8.05;80.69
65872;BME280;52653;50.080;21.992;2023-03-26T01:00:51;98098.11;;;7.94;81.45
65872;BME280;52653;50.080;21.992;2023-03-26T01:03:33;98088.67;;;7.84;81.81
65872;BME280;52653;50.080;21.992;2023-03-26T01:06:19;98085.65;;;7.77;82.25
65872;BME280;52653;50.080;21.992;2023-03-26T01:09:02;98089.02;;;7.71;82.42
65872;BME280;52653;50.080;21.992;2023-03-26T01:11:36;98097.11;;;7.68;82.67
65872;BME280;52653;50.080;21.992;2023-03-26T01:14:14;98094.70;;;7.65;82.64
65872;BME280;52653;50.080;21.992;2023-03-26T01:16:51;98095.98;;;7.60;83.01
65872;BME280;52653;50.080;21.992;2023-03-26T01:19:29;98105.16;;;7.53;83.87
65872;BME280;52653;50.080;21.992;2023-03-26T01:22:10;98100.76;;;7.43;83.64
65872;BME280;52653;50.080;21.992;2023-03-26T01:24:45;98099.45;;;7.37;83.41
65872;BME280;52653;50.080;21.992;2023-03-26T01:27:32;98106.29;;;7.33;83.43
65872;BME280;52653;50.080;21.992;2023-03-26T01:30:18;98104.08;;;7.30;83.32
65872;BME280;52653;50.080;21.992;2023-03-26T01:33:03;98097.29;;;7.29;82.91
65872;BME280;52653;50.080;21.992;2023-03-26T01:35:56;98092.39;;;7.29;82.77
65872;BME280;52653;50.080;21.992;2023-03-26T01:38:34;98088.70;;;7.31;82.56
65872;BME280;52653;50.080;21.992;2023-03-26T01:41:26;98085.91;;;7.31;82.42
65872;BME280;52653;50.080;21.992;2023-03-26T01:44:17;98089.21;;;7.32;82.46
65872;BME280;52653;50.080;21.992;2023-03-26T01:46:56;98086.43;;;7.32;82.51
65872;BME280;52653;50.080;21.992;2023-03-26T01:49:32;98089.23;;;7.31;82.22
65872;BME280;52653;50.080;21.992;2023-03-26T01:52:09;98090.49;;;7.28;82.73
65872;BME280;52653;50.080;21.992;2023-03-26T01:54:44;98086.88;;;7.24;82.65
65872;BME280;52653;50.080;21.992;2023-03-26T01:57:26;98092.67;;;7.21;82.83
65872;BME280;52653;50.080;21.992;2023-03-26T02:00:21;98090.77;;;7.19;83.08
65872;BME280;52653;50.080;21.992;2023-03-26T02:03:19;98091.85;;;7.17;83.25
65872;BME280;52653;50.080;21.992;2023-03-26T02:05:56;98089.25;;;7.16;83.46
65872;BME280;52653;50.080;21.992;2023-03-26T02:08:59;98093.13;;;7.13;83.26
65872;BME280;52653;50.080;21.992;2023-03-26T02:11:47;98090.86;;;7.12;83.04
65872;BME280;52653;50.080;21.992;2023-03-26T02:14:23;98090.00;;;7.11;82.76
65872;BME280;52653;50.080;21.992;2023-03-26T02:16:59;98087.90;;;7.12;82.58
65872;BME280;52653;50.080;21.992;2023-03-26T02:19:36;98083.34;;;7.15;82.22
65872;BME280;52653;50.080;21.992;2023-03-26T02:22:15;98080.83;;;7.19;81.84
65872;BME280;52653;50.080;21.992;2023-03-26T02:24:48;98079.73;;;7.22;81.50
65872;BME280;52653;50.080;21.992;2023-03-26T02:27:22;98077.27;;;7.25;81.35
65872;BME280;52653;50.080;21.992;2023-03-26T02:29:59;98079.54;;;7.26;81.30
65872;BME280;52653;50.080;21.992;2023-03-26T02:32:33;98075.53;;;7.26;81.38
65872;BME280;52653;50.080;21.992;2023-03-26T02:35:11;98078.50;;;7.26;81.17
65872;BME280;52653;50.080;21.992;2023-03-26T02:37:47;98079.02;;;7.24;80.66
65872;BME280;52653;50.080;21.992;2023-03-26T02:40:22;98076.79;;;7.22;80.91
65872;BME280;52653;50.080;21.992;2023-03-26T02:42:57;98074.56;;;7.18;80.58
65872;BME280;52653;50.080;21.992;2023-03-26T02:45:41;98073.92;;;7.15;80.30
65872;BME280;52653;50.080;21.992;2023-03-26T02:48:36;98075.53;;;7.11;80.48
65872;BME280;52653;50.080;21.992;2023-03-26T02:51:17;98077.17;;;7.05;80.13
65872;BME280;52653;50.080;21.992;2023-03-26T02:54:04;98075.67;;;6.99;80.30
65872;BME280;52653;50.080;21.992;2023-03-26T02:56:38;98077.13;;;6.94;80.30
65872;BME280;52653;50.080;21.992;2023-03-26T02:59:21;98074.24;;;6.87;80.28
65872;BME280;52653;50.080;21.992;2023-03-26T03:02:12;98076.38;;;6.83;80.29
65872;BME280;52653;50.080;21.992;2023-03-26T03:04:45;98074.02;;;6.77;80.48
65872;BME280;52653;50.080;21.992;2023-03-26T03:07:18;98077.70;;;6.73;80.40
65872;BME280;52653;50.080;21.992;2023-03-26T03:09:55;98075.83;;;6.70;80.36
65872;BME280;52653;50.080;21.992;2023-03-26T03:12:53;98073.09;;;6.66;80.53
65872;BME280;52653;50.080;21.992;2023-03-26T03:15:28;98071.55;;;6.63;80.31
65872;BME280;52653;50.080;21.992;2023-03-26T03:18:04;98070.36;;;6.61;80.50
65872;BME280;52653;50.080;21.992;2023-03-26T03:20:38;98067.73;;;6.62;80.48
65872;BME280;52653;50.080;21.992;2023-03-26T03:23:10;98070.16;;;6.63;80.43
65872;BME280;52653;50.080;21.992;2023-03-26T03:25:47;98073.80;;;6.64;80.47
65872;BME280;52653;50.080;21.992;2023-03-26T03:28:23;98073.59;;;6.66;80.55
65872;BME280;52653;50.080;21.992;2023-03-26T03:30:59;98074.60;;;6.70;80.39
65872;BME280;52653;50.080;21.992;2023-03-26T03:33:35;98068.65;;;6.73;80.42
65872;BME280;52653;50.080;21.992;2023-03-26T03:36:10;98067.91;;;6.77;80.34
65872;BME280;52653;50.080;21.992;2023-03-26T03:38:58;98069.25;;;6.81;80.23
65872;BME280;52653;50.080;21.992;2023-03-26T03:41:33;98072.02;;;6.84;80.33
65872;BME280;52653;50.080;21.992;2023-03-26T03:44:09;98077.56;;;6.87;80.30
65872;BME280;52653;50.080;21.992;2023-03-26T03:46:42;98077.35;;;6.90;80.34
65872;BME280;52653;50.080;21.992;2023-03-26T03:49:15;98073.48;;;6.93;80.41
65872;BME280;52653;50.080;21.992;2023-03-26T03:51:49;98076.92;;;6.95;80.20
65872;BME280;52653;50.080;21.992;2023-03-26T03:54:29;98075.68;;;6.99;80.08
65872;BME280;52653;50.080;21.992;2023-03-26T03:57:29;98075.81;;;7.02;79.82
65872;BME280;52653;50.080;21.992;2023-03-26T04:00:09;98076.81;;;7.06;79.58
65872;BME280;52653;50.080;21.992;2023-03-26T04:02:45;98077.63;;;7.10;79.65
65872;BME280;52653;50.080;21.992;2023-03-26T04:05:19;98078.30;;;7.14;79.28
65872;BME280;52653;50.080;21.992;2023-03-26T04:07:56;98077.73;;;7.17;79.34
65872;BME280;52653;50.080;21.992;2023-03-26T04:10:30;98079.08;;;7.20;79.23
65872;BME280;52653;50.080;21.992;2023-03-26T04:13:23;98076.60;;;7.23;78.88
65872;BME280;52653;50.080;21.992;2023-03-26T04:16:07;98077.27;;;7.26;78.87
65872;BME280;52653;50.080;21.992;2023-03-26T04:18:41;98082.80;;;7.29;78.95
65872;BME280;52653;50.080;21.992;2023-03-26T04:21:24;98084.53;;;7.30;78.89
65872;BME280;52653;50.080;21.992;2023-03-26T04:24:00;98081.89;;;7.32;78.89
65872;BME280;52653;50.080;21.992;2023-03-26T04:26:57;98079.41;;;7.34;79.04
65872;BME280;52653;50.080;21.992;2023-03-26T04:29:42;98076.78;;;7.35;79.16
65872;BME280;52653;50.080;21.992;2023-03-26T04:32:23;98076.06;;;7.36;79.19
65872;BME280;52653;50.080;21.992;2023-03-26T04:35:04;98072.06;;;7.37;79.11
65872;BME280;52653;50.080;21.992;2023-03-26T04:37:49;98075.01;;;7.39;79.24
65872;BME280;52653;50.080;21.992;2023-03-26T04:40:30;98073.59;;;7.41;79.28
65872;BME280;52653;50.080;21.992;2023-03-26T04:43:17;98071.12;;;7.42;79.01
65872;BME280;52653;50.080;21.992;2023-03-26T04:46:09;98074.38;;;7.46;78.96
65872;BME280;52653;50.080;21.992;2023-03-26T04:48:52;98071.38;;;7.48;78.85
65872;BME280;52653;50.080;21.992;2023-03-26T04:51:34;98074.86;;;7.50;78.98
65872;BME280;52653;50.080;21.992;2023-03-26T04:54:16;98073.45;;;7.51;78.78
65872;BME280;52653;50.080;21.992;2023-03-26T04:56:59;98072.05;;;7.52;78.91
65872;BME280;52653;50.080;21.992;2023-03-26T04:59:58;98070.45;;;7.53;78.63
65872;BME280;52653;50.080;21.992;2023-03-26T05:02:51;98069.40;;;7.53;78.65
65872;BME280;52653;50.080;21.992;2023-03-26T05:05:47;98070.63;;;7.53;78.43
65872;BME280;52653;50.080;21.992;2023-03-26T05:08:31;98076.55;;;7.54;78.38
65872;BME280;52653;50.080;21.992;2023-03-26T05:11:25;98080.70;;;7.55;78.35
65872;BME280;52653;50.080;21.992;2023-03-26T05:14:18;98077.35;;;7.58;78.37
65872;BME280;52653;50.080;21.992;2023-03-26T05:17:05;98079.91;;;7.62;78.34
65872;BME280;52653;50.080;21.992;2023-03-26T05:20:02;98084.55;;;7.67;78.21
65872;BME280;52653;50.080;21.992;2023-03-26T05:22:55;98085.05;;;7.68;78.09
65872;BME280;52653;50.080;21.992;2023-03-26T05:25:49;98081.19;;;7.71;78.16
65872;BME280;52653;50.080;21.992;2023-03-26T05:28:43;98081.35;;;7.72;77.91
65872;BME280;52653;50.080;21.992;2023-03-26T05:31:38;98075.38;;;7.74;77.87
65872;BME280;52653;50.080;21.992;2023-03-26T05:34:31;98077.96;;;7.76;77.60
65872;BME280;52653;50.080;21.992;2023-03-26T05:37:26;98072.39;;;7.77;77.86
65872;BME280;52653;50.080;21.992;2023-03-26T05:40:22;98075.19;;;7.75;77.65
65872;BME280;52653;50.080;21.992;2023-03-26T05:43:09;98076.98;;;7.72;77.65
65872;BME280;52653;50.080;21.992;2023-03-26T05:46:11;98078.61;;;7.68;77.67
65872;BME280;52653;50.080;21.992;2023-03-26T05:49:04;98080.92;;;7.65;77.83
65872;BME280;52653;50.080;21.992;2023-03-26T05:51:57;98077.11;;;7.64;77.80
65872;BME280;52653;50.080;21.992;2023-03-26T05:54:54;98075.98;;;7.69;78.13
65872;BME280;52653;50.080;21.992;2023-03-26T05:58:05;98076.92;;;7.76;77.48
65872;BME280;52653;50.080;21.992;2023-03-26T06:01:00;98081.95;;;7.90;77.71
65872;BME280;52653;50.080;21.992;2023-03-26T06:03:56;98077.64;;;8.08;77.44
65872;BME280;52653;50.080;21.992;2023-03-26T06:06:42;98082.13;;;8.22;76.88
65872;BME280;52653;50.080;21.992;2023-03-26T06:09:15;98085.63;;;8.34;76.62
65872;BME280;52653;50.080;21.992;2023-03-26T06:12:10;98089.04;;;8.40;76.09
65872;BME280;52653;50.080;21.992;2023-03-26T06:14:47;98088.26;;;8.44;75.66
65872;BME280;52653;50.080;21.992;2023-03-26T06:17:28;98086.42;;;8.59;75.52
65872;BME280;52653;50.080;21.992;2023-03-26T06:20:11;98086.02;;;8.91;75.33
65872;BME280;52653;50.080;21.992;2023-03-26T06:23:06;98081.59;;;9.28;74.07
65872;BME280;52653;50.080;21.992;2023-03-26T06:25:55;98083.10;;;9.48;73.04
65872;BME280;52653;50.080;21.992;2023-03-26T06:29:02;98081.73;;;9.62;71.68
65872;BME280;52653;50.080;21.992;2023-03-26T06:32:03;98085.23;;;9.86;71.13
65872;BME280;52653;50.080;21.992;2023-03-26T06:34:53;98090.45;;;10.02;69.54
65872;BME280;52653;50.080;21.992;2023-03-26T06:37:36;98085.45;;;10.08;68.60
65872;BME280;52653;50.080;21.992;2023-03-26T06:40:29;98084.27;;;10.05;69.01
65872;BME280;52653;50.080;21.992;2023-03-26T06:43:24;98088.77;;;10.06;69.50
65872;BME280;52653;50.080;21.992;2023-03-26T06:46:17;98081.67;;;10.10;69.19
65872;BME280;52653;50.080;21.992;2023-03-26T06:49:29;98091.48;;;10.18;69.16
65872;BME280;52653;50.080;21.992;2023-03-26T06:52:22;98090.65;;;10.24;68.78
65872;BME280;52653;50.080;21.992;2023-03-26T06:55:17;98090.88;;;10.29;67.60
65872;BME280;52653;50.080;21.992;2023-03-26T06:58:13;98086.67;;;10.37;67.49
65872;BME280;52653;50.080;21.992;2023-03-26T07:01:06;98088.62;;;10.50;68.12
65872;BME280;52653;50.080;21.992;2023-03-26T07:03:57;98084.04;;;10.64;67.73
65872;BME280;52653;50.080;21.992;2023-03-26T07:06:49;98082.95;;;10.73;67.51
65872;BME280;52653;50.080;21.992;2023-03-26T07:09:42;98083.53;;;10.77;67.39
65872;BME280;52653;50.080;21.992;2023-03-26T07:12:46;98085.64;;;10.76;67.73
65872;BME280;52653;50.080;21.992;2023-03-26T07:15:38;98087.73;;;10.71;67.60
65872;BME280;52653;50.080;21.992;2023-03-26T07:18:33;98087.43;;;10.75;67.82
65872;BME280;52653;50.080;21.992;2023-03-26T07:21:20;98083.50;;;10.85;68.01
65872;BME280;52653;50.080;21.992;2023-03-26T07:24:14;98085.36;;;10.87;67.23
65872;BME280;52653;50.080;21.992;2023-03-26T07:27:14;98085.23;;;10.92;66.59
65872;BME280;52653;50.080;21.992;2023-03-26T07:30:16;98080.89;;;11.22;66.82
65872;BME280;52653;50.080;21.992;2023-03-26T07:33:10;98077.80;;;11.61;66.24
65872;BME280;52653;50.080;21.992;2023-03-26T07:36:20;98073.12;;;11.76;64.42
65872;BME280;52653;50.080;21.992;2023-03-26T07:39:25;98074.04;;;11.83;63.72
65872;BME280;52653;50.080;21.992;2023-03-26T07:42:50;98073.05;;;11.86;63.78
65872;BME280;52653;50.080;21.992;2023-03-26T07:45:47;98076.72;;;11.80;61.92
65872;BME280;52653;50.080;21.992;2023-03-26T07:48:43;98078.73;;;11.89;62.84
65872;BME280;52653;50.080;21.992;2023-03-26T07:51:39;98076.81;;;12.05;62.95
65872;BME280;52653;50.080;21.992;2023-03-26T07:54:27;98077.80;;;12.02;61.17
65872;BME280;52653;50.080;21.992;2023-03-26T07:57:28;98074.23;;;11.98;61.84
65872;BME280;52653;50.080;21.992;2023-03-26T08:00:28;98074.75;;;12.10;62.47
65872;BME280;52653;50.080;21.992;2023-03-26T08:03:30;98070.79;;;12.13;60.08
65872;BME280;52653;50.080;21.992;2023-03-26T08:06:36;98072.55;;;12.07;60.59
65872;BME280;52653;50.080;21.992;2023-03-26T08:09:58;98069.45;;;12.16;61.14
65872;BME280;52653;50.080;21.992;2023-03-26T08:12:54;98072.42;;;12.32;61.17
65872;BME280;52653;50.080;21.992;2023-03-26T08:15:34;98072.27;;;12.42;59.51
65872;BME280;52653;50.080;21.992;2023-03-26T08:18:24;98071.17;;;12.49;59.61
65872;BME280;52653;50.080;21.992;2023-03-26T08:21:05;98068.58;;;12.78;59.63
65872;BME280;52653;50.080;21.992;2023-03-26T08:23:53;98064.48;;;13.04;58.02
65872;BME280;52653;50.080;21.992;2023-03-26T08:26:38;98068.30;;;13.15;57.05
65872;BME280;52653;50.080;21.992;2023-03-26T08:29:22;98071.58;;;13.18;56.33
65872;BME280;52653;50.080;21.992;2023-03-26T08:31:58;98067.67;;;13.04;55.82
65872;BME280;52653;50.080;21.992;2023-03-26T08:34:34;98062.59;;;12.88;55.95
65872;BME280;52653;50.080;21.992;2023-03-26T08:37:27;98062.86;;;12.76;55.94
65872;BME280;52653;50.080;21.992;2023-03-26T08:40:00;98063.14;;;12.62;56.04
65872;BME280;52653;50.080;21.992;2023-03-26T08:45:58;98061.38;;;12.37;57.61
65872;BME280;52653;50.080;21.992;2023-03-26T08:49:23;98065.55;;;12.33;58.25
65872;BME280;52653;50.080;21.992;2023-03-26T08:55:32;98075.52;;;11.96;59.15
65872;BME280;52653;50.080;21.992;2023-03-26T08:58:56;98075.95;;;11.82;61.09
65872;BME280;52653;50.080;21.992;2023-03-26T09:02:19;98076.30;;;11.70;61.50
65872;BME280;52653;50.080;21.992;2023-03-26T09:12:12;98063.95;;;12.17;63.25
65872;BME280;52653;50.080;21.992;2023-03-26T09:15:09;98066.99;;;12.32;61.29
65872;BME280;52653;50.080;21.992;2023-03-26T09:18:12;98069.00;;;12.40;61.62
65872;BME280;52653;50.080;21.992;2023-03-26T09:27:34;98061.87;;;12.32;61.39
65872;BME280;52653;50.080;21.992;2023-03-26T09:30:46;98061.30;;;12.28;62.03
65872;BME280;52653;50.080;21.992;2023-03-26T09:33:58;98065.30;;;12.19;60.67
65872;BME280;52653;50.080;21.992;2023-03-26T09:37:24;98061.91;;;12.15;61.21
65872;BME280;52653;50.080;21.992;2023-03-26T09:40:20;98061.16;;;12.12;60.66
65872;BME280;52653;50.080;21.992;2023-03-26T09:43:38;98060.20;;;12.03;59.79
65872;BME280;52653;50.080;21.992;2023-03-26T09:46:39;98060.39;;;11.91;60.38
65872;BME280;52653;50.080;21.992;2023-03-26T09:49:41;98061.80;;;11.86;60.97
65872;BME280;52653;50.080;21.992;2023-03-26T09:52:48;98057.81;;;11.85;60.96
65872;BME280;52653;50.080;21.992;2023-03-26T09:55:51;98059.33;;;11.92;60.69
65872;BME280;52653;50.080;21.992;2023-03-26T09:59:03;98056.71;;;12.13;58.90
65872;BME280;52653;50.080;21.992;2023-03-26T10:02:18;98051.52;;;12.47;58.20
65872;BME280;52653;50.080;21.992;2023-03-26T10:05:54;98046.05;;;13.03;56.50
65872;BME280;52653;50.080;21.992;2023-03-26T10:09:06;98034.58;;;13.69;55.90
65872;BME280;52653;50.080;21.992;2023-03-26T10:12:00;98020.48;;;13.97;53.23
65872;BME280;52653;50.080;21.992;2023-03-26T10:14:42;98014.70;;;14.00;51.90
65872;BME280;52653;50.080;21.992;2023-03-26T10:17:34;98021.79;;;13.99;51.82
65872;BME280;52653;50.080;21.992;2023-03-26T10:20:36;98022.27;;;13.87;51.39
65872;BME280;52653;50.080;21.992;2023-03-26T10:23:45;98016.52;;;13.72;51.09
65872;BME280;52653;50.080;21.992;2023-03-26T10:26:49;98013.60;;;13.70;51.63
65872;BME280;52653;50.080;21.992;2023-03-26T10:30:20;98010.98;;;13.65;52.65
65872;BME280;52653;50.080;21.992;2023-03-26T10:33:27;98015.79;;;13.55;53.00
65872;BME280;52653;50.080;21.992;2023-03-26T10:36:28;98016.28;;;13.28;53.94
65872;BME280;52653;50.080;21.992;2023-03-26T10:42:33;98018.70;;;13.00;56.62
65872;BME280;52653;50.080;21.992;2023-03-26T10:45:29;98017.71;;;12.99;57.61
65872;BME280;52653;50.080;21.992;2023-03-26T10:48:31;98016.31;;;12.98;57.30
65872;BME280;52653;50.080;21.992;2023-03-26T10:51:44;98012.80;;;13.02;56.76
65872;BME280;52653;50.080;21.992;2023-03-26T10:54:31;98006.59;;;13.28;57.56
65872;BME280;52653;50.080;21.992;2023-03-26T10:57:23;98006.58;;;13.56;57.27
65872;BME280;52653;50.080;21.992;2023-03-26T11:00:22;98000.67;;;13.80;56.26
65872;BME280;52653;50.080;21.992;2023-03-26T11:03:15;98000.48;;;13.93;55.43
65872;BME280;52653;50.080;21.992;2023-03-26T11:06:00;98001.54;;;14.02;55.36
65872;BME280;52653;50.080;21.992;2023-03-26T11:08:41;98000.41;;;14.04;54.95
65872;BME280;52653;50.080;21.992;2023-03-26T11:11:23;97999.45;;;13.89;54.07
65872;BME280;52653;50.080;21.992;2023-03-26T11:14:04;98004.20;;;13.76;55.14
65872;BME280;52653;50.080;21.992;2023-03-26T11:16:57;97998.99;;;13.69;55.08
65872;BME280;52653;50.080;21.992;2023-03-26T11:19:38;97997.34;;;13.67;55.13
65872;BME280;52653;50.080;21.992;2023-03-26T11:22:28;97994.89;;;13.70;54.29
65872;BME280;52653;50.080;21.992;2023-03-26T11:25:27;97990.65;;;13.79;53.71
65872;BME280;52653;50.080;21.992;2023-03-26T11:28:12;97985.31;;;13.90;52.75
65872;BME280;52653;50.080;21.992;2023-03-26T11:30:54;97981.19;;;14.00;53.09
65872;BME280;52653;50.080;21.992;2023-03-26T11:33:36;97980.60;;;14.05;53.33
65872;BME280;52653;50.080;21.992;2023-03-26T11:36:28;97980.13;;;14.08;53.08
65872;BME280;52653;50.080;21.992;2023-03-26T11:39:05;97978.91;;;14.12;52.99
65872;BME280;52653;50.080;21.992;2023-03-26T11:41:54;97976.70;;;14.14;52.96
65872;BME280;52653;50.080;21.992;2023-03-26T11:44:44;97974.83;;;14.08;52.87
65872;BME280;52653;50.080;21.992;2023-03-26T11:47:22;97974.19;;;13.98;52.80
65872;BME280;52653;50.080;21.992;2023-03-26T11:50:00;97972.86;;;13.96;53.20
65872;BME280;52653;50.080;21.992;2023-03-26T11:52:35;97973.05;;;14.05;52.61
65872;BME280;52653;50.080;21.992;2023-03-26T11:55:11;97970.73;;;14.22;52.37
65872;BME280;52653;50.080;21.992;2023-03-26T11:57:52;97967.64;;;14.46;51.58
65872;BME280;52653;50.080;21.992;2023-03-26T12:00:45;97967.11;;;14.78;50.60
65872;BME280;52653;50.080;21.992;2023-03-26T12:03:32;97968.92;;;14.85;49.97
65872;BME280;52653;50.080;21.992;2023-03-26T12:06:23;97966.02;;;14.79;49.03
65872;BME280;52653;50.080;21.992;2023-03-26T12:09:01;97962.44;;;14.71;49.53
65872;BME280;52653;50.080;21.992;2023-03-26T12:11:38;97962.65;;;14.79;49.48
65872;BME280;52653;50.080;21.992;2023-03-26T12:14:17;97961.66;;;14.65;47.55
65872;BME280;52653;50.080;21.992;2023-03-26T12:17:02;97952.35;;;14.48;47.75
65872;BME280;52653;50.080;21.992;2023-03-26T12:19:55;97946.45;;;14.50;47.69
65872;BME280;52653;50.080;21.992;2023-03-26T12:22:38;97943.31;;;14.61;47.23
65872;BME280;52653;50.080;21.992;2023-03-26T12:25:20;97947.99;;;14.59;46.06
65872;BME280;52653;50.080;21.992;2023-03-26T12:28:19;97949.94;;;14.63;46.07
65872;BME280;52653;50.080;21.992;2023-03-26T12:31:14;97954.11;;;14.56;44.83
65872;BME280;52653;50.080;21.992;2023-03-26T12:34:11;97944.48;;;14.59;44.72
65872;BME280;52653;50.080;21.992;2023-03-26T12:36:59;97933.08;;;14.92;45.97
65872;BME280;52653;50.080;21.992;2023-03-26T12:39:47;97938.15;;;15.24;45.63
65872;BME280;52653;50.080;21.992;2023-03-26T12:42:40;97938.85;;;15.13;43.91
65872;BME280;52653;50.080;21.992;2023-03-26T12:45:41;97928.83;;;14.93;43.32
65872;BME280;52653;50.080;21.992;2023-03-26T12:48:18;97918.30;;;14.72;43.85
65872;BME280;52653;50.080;21.992;2023-03-26T12:51:02;97924.79;;;14.53;44.01
65872;BME280;52653;50.080;21.992;2023-03-26T12:54:04;97920.63;;;14.31;44.49
65872;BME280;52653;50.080;21.992;2023-03-26T12:56:54;97917.50;;;14.18;45.50
65872;BME280;52653;50.080;21.992;2023-03-26T13:06:09;97908.25;;;14.27;45.11
65872;BME280;52653;50.080;21.992;2023-03-26T13:09:13;97906.92;;;14.46;44.15
65872;BME280;52653;50.080;21.992;2023-03-26T13:12:01;97905.41;;;14.56;43.81
65872;BME280;52653;50.080;21.992;2023-03-26T13:15:05;97895.11;;;14.58;43.61
65872;BME280;52653;50.080;21.992;2023-03-26T13:18:15;97895.55;;;14.44;44.00
65872;BME280;52653;50.080;21.992;2023-03-26T13:20:58;97886.95;;;14.42;44.91
65872;BME280;52653;50.080;21.992;2023-03-26T13:23:53;97881.41;;;14.40;45.33
65872;BME280;52653;50.080;21.992;2023-03-26T13:26:44;97889.94;;;14.31;44.82
65872;BME280;52653;50.080;21.992;2023-03-26T13:29:27;97886.13;;;14.21;44.45
65872;BME280;52653;50.080;21.992;2023-03-26T13:32:13;97873.46;;;14.12;44.97
65872;BME280;52653;50.080;21.992;2023-03-26T13:35:02;97875.47;;;13.98;45.33
65872;BME280;52653;50.080;21.992;2023-03-26T13:38:04;97871.31;;;13.76;45.51
65872;BME280;52653;50.080;21.992;2023-03-26T13:40:51;97873.86;;;13.70;46.94
65872;BME280;52653;50.080;21.992;2023-03-26T13:43:45;97866.35;;;13.85;46.25
65872;BME280;52653;50.080;21.992;2023-03-26T13:46:28;97866.48;;;13.94;44.76
65872;BME280;52653;50.080;21.992;2023-03-26T13:49:13;97858.83;;;13.96;44.76
65872;BME280;52653;50.080;21.992;2023-03-26T13:51:52;97857.96;;;13.88;45.18
65872;BME280;52653;50.080;21.992;2023-03-26T13:54:50;97855.98;;;13.76;45.57
65872;BME280;52653;50.080;21.992;2023-03-26T13:57:33;97855.71;;;13.66;45.63
65872;BME280;52653;50.080;21.992;2023-03-26T14:00:19;97857.52;;;13.65;45.94
65872;BME280;52653;50.080;21.992;2023-03-26T14:03:00;97856.38;;;13.71;46.13
65872;BME280;52653;50.080;21.992;2023-03-26T14:05:46;97854.89;;;13.85;45.42
65872;BME280;52653;50.080;21.992;2023-03-26T14:08:33;97847.38;;;13.79;45.18
65872;BME280;52653;50.080;21.992;2023-03-26T14:11:10;97847.02;;;13.75;45.56
65872;BME280;52653;50.080;21.992;2023-03-26T14:13:59;97845.48;;;13.87;45.18
65872;BME280;52653;50.080;21.992;2023-03-26T14:16:49;97839.92;;;13.97;45.30
65872;BME280;52653;50.080;21.992;2023-03-26T14:23:14;97836.40;;;14.05;45.10
65872;BME280;52653;50.080;21.992;2023-03-26T14:25:52;97845.53;;;13.98;44.69
65872;BME280;52653;50.080;21.992;2023-03-26T14:28:56;97839.63;;;13.87;45.08
65872;BME280;52653;50.080;21.992;2023-03-26T14:31:37;97844.25;;;13.74;44.99
65872;BME280;52653;50.080;21.992;2023-03-26T14:34:39;97843.30;;;13.68;45.55
65872;BME280;52653;50.080;21.992;2023-03-26T14:37:36;97842.39;;;13.60;45.29
65872;BME280;52653;50.080;21.992;2023-03-26T14:43:47;97845.23;;;13.51;46.43
65872;BME280;52653;50.080;21.992;2023-03-26T14:46:38;97839.80;;;13.46;46.34
65872;BME280;52653;50.080;21.992;2023-03-26T14:52:29;97837.65;;;13.72;47.05
65872;BME280;52653;50.080;21.992;2023-03-26T14:55:14;97843.40;;;13.81;46.60
65872;BME280;52653;50.080;21.992;2023-03-26T15:01:23;97860.91;;;13.47;49.86
65872;BME280;52653;50.080;21.992;2023-03-26T15:07:22;97863.52;;;13.03;52.28
65872;BME280;52653;50.080;21.992;2023-03-26T15:10:51;97861.73;;;13.03;52.58
65872;BME280;52653;50.080;21.992;2023-03-26T15:13:52;97855.12;;;13.11;52.51
65872;BME280;52653;50.080;21.992;2023-03-26T15:17:01;97855.22;;;13.08;52.43
65872;BME280;52653;50.080;21.992;2023-03-26T15:20:42;97849.86;;;12.87;53.04
65872;BME280;52653;50.080;21.992;2023-03-26T15:24:11;97848.70;;;12.67;53.63
65872;BME280;52653;50.080;21.992;2023-03-26T15:27:45;97848.83;;;12.50;54.25
65872;BME280;52653;50.080;21.992;2023-03-26T15:37:21;97837.16;;;12.13;55.52
65872;BME280;52653;50.080;21.992;2023-03-26T15:40:26;97837.73;;;12.02;55.92
65872;BME280;52653;50.080;21.992;2023-03-26T15:43:27;97840.61;;;12.00;56.29